createdAt,value
2023-03-13T00:00:41.800Z,93618.44
2023-03-13T00:05:44.917Z,93626.44
2023-03-13T00:10:47.973Z,93631.66
2023-03-13T00:15:51.100Z,93630.59
2023-03-13T00:21:01.899Z,93637.19
2023-03-13T00:26:14.223Z,93650.59
2023-03-13T00:31:29.627Z,93657.84
2023-03-13T00:36:35.517Z,93663.84
2023-03-13T00:41:38.783Z,93662.75
2023-03-13T00:46:42.485Z,93669.91
2023-03-13T00:51:45.573Z,93669.78
2023-03-13T00:56:49.745Z,93674.03
2023-03-13T01:01:53.579Z,93672.16
2023-03-13T01:06:58.235Z,93671.38
2023-03-13T01:12:01.535Z,93672.88
2023-03-13T01:17:07.507Z,93669.19
2023-03-13T01:22:12.884Z,93679.41
2023-03-13T01:27:16.121Z,93686.28
2023-03-13T01:32:19.429Z,93683.81
2023-03-13T01:37:22.565Z,93676.53
2023-03-13T01:42:26.060Z,93675.56
2023-03-13T01:47:29.649Z,93681.41
2023-03-13T01:52:49.740Z,93687.91
2023-03-13T01:58:02.462Z,93671.22
2023-03-13T02:03:11.504Z,93672.53
2023-03-13T02:08:35.940Z,93696.50
2023-03-13T02:13:39.368Z,93690.56
2023-03-13T02:18:43.704Z,93691.53
2023-03-13T02:24:37.186Z,93684.69
2023-03-13T02:29:41.827Z,93684.47
2023-03-13T02:34:50.319Z,93685.38
2023-03-13T02:39:55.231Z,93690.28
2023-03-13T02:44:58.701Z,93676.59
2023-03-13T02:50:02.123Z,93682.00
2023-03-13T02:55:15.881Z,93693.19
2023-03-13T03:00:20.277Z,93688.91
2023-03-13T03:05:23.798Z,93702.28
2023-03-13T03:10:27.287Z,93714.09
2023-03-13T03:15:30.467Z,93706.19
2023-03-13T03:20:34.322Z,93709.41
2023-03-13T03:25:37.444Z,93724.28
2023-03-13T03:30:41.352Z,93727.78
2023-03-13T03:35:44.437Z,93730.84
2023-03-13T03:40:49.808Z,93745.16
2023-03-13T03:45:54.098Z,93762.34
2023-03-13T03:50:58.234Z,93766.53
2023-03-13T03:56:02.469Z,93780.47
2023-03-13T04:01:06.174Z,93766.03
2023-03-13T04:06:10.333Z,93772.03
2023-03-13T04:11:13.517Z,93772.25
2023-03-13T04:16:22.535Z,93781.09
2023-03-13T04:21:27.008Z,93788.84
2023-03-13T04:26:37.026Z,93803.63
2023-03-13T04:31:40.175Z,93803.78
2023-03-13T04:36:57.788Z,93803.41
2023-03-13T04:42:20.022Z,93811.69
2023-03-13T04:47:43.321Z,93812.53
2023-03-13T04:53:09.214Z,93814.91
2023-03-13T04:58:30.856Z,93824.53
2023-03-13T05:03:47.114Z,93824.00
2023-03-13T05:09:06.580Z,93839.31
2023-03-13T05:14:16.242Z,93834.09
2023-03-13T05:19:42.416Z,93828.22
2023-03-13T05:24:57.814Z,93830.31
2023-03-13T05:30:27.621Z,93845.13
2023-03-13T05:35:49.520Z,93843.88
2023-03-13T05:41:15.849Z,93831.97
2023-03-13T05:46:37.513Z,93853.38
2023-03-13T05:52:03.548Z,93853.69
2023-03-13T05:57:23.196Z,93865.69
2023-03-13T06:02:40.961Z,93860.50
2023-03-13T06:07:47.125Z,93883.84
2023-03-13T06:12:55.952Z,93888.69
2023-03-13T06:18:02.935Z,93888.06
2023-03-13T06:23:06.392Z,93889.13
2023-03-13T06:28:09.578Z,93897.94
2023-03-13T06:33:12.717Z,93893.38
2023-03-13T06:38:15.824Z,93902.69
2023-03-13T06:43:20.054Z,93892.34
2023-03-13T06:48:23.872Z,93890.41
2023-03-13T06:53:26.933Z,93893.31
2023-03-13T06:58:32.806Z,93896.25
2023-03-13T07:03:36.916Z,93886.47
2023-03-13T07:08:40.756Z,93916.50
2023-03-13T07:13:44.454Z,93913.13
2023-03-13T07:18:48.039Z,93895.16
2023-03-13T07:23:51.873Z,93900.56
2023-03-13T07:28:56.788Z,93904.44
2023-03-13T07:34:03.003Z,93903.75
2023-03-13T07:39:07.012Z,93916.06
2023-03-13T07:44:10.625Z,93915.44
2023-03-13T07:49:13.843Z,93932.78
2023-03-13T07:54:17.904Z,93938.91
2023-03-13T07:59:21.485Z,93929.91
2023-03-13T08:04:24.883Z,93956.16
2023-03-13T08:09:28.463Z,93962.47
2023-03-13T08:14:31.608Z,93955.41
2023-03-13T08:19:34.743Z,93965.44
2023-03-13T08:24:38.295Z,93974.31
2023-03-13T08:29:41.453Z,93970.53
2023-03-13T08:34:45.620Z,93968.94
2023-03-13T08:39:50.171Z,93963.66
2023-03-13T08:44:54.199Z,93969.00
2023-03-13T08:49:58.384Z,93965.69
2023-03-13T08:55:01.627Z,93961.34
2023-03-13T09:00:07.211Z,93964.47
2023-03-13T09:05:10.364Z,93958.19
2023-03-13T09:10:13.471Z,93970.16
2023-03-13T09:15:17.120Z,93974.88
2023-03-13T09:20:33.830Z,93979.19
2023-03-13T09:25:39.848Z,93976.34
2023-03-13T09:30:43.532Z,93978.19
2023-03-13T09:35:53.484Z,93984.50
2023-03-13T09:41:06.190Z,93986.16
2023-03-13T09:46:34.267Z,93978.03
2023-03-13T09:51:43.565Z,93978.63
2023-03-13T09:57:00.721Z,93983.53
2023-03-13T10:02:16.687Z,93963.66
2023-03-13T10:07:21.624Z,93982.34
2023-03-13T10:12:30.219Z,93986.34
2023-03-13T10:17:39.421Z,93996.53
2023-03-13T10:22:46.657Z,93988.22
2023-03-13T10:27:51.269Z,93990.75
2023-03-13T10:32:59.030Z,93984.75
2023-03-13T10:38:11.393Z,93975.22
2023-03-13T10:43:22.306Z,93983.09
2023-03-13T10:48:30.356Z,93980.81
2023-03-13T10:53:37.013Z,93984.16
2023-03-13T10:58:50.283Z,93971.97
2023-03-13T11:03:57.679Z,93978.44
2023-03-13T11:09:18.490Z,93971.25
2023-03-13T11:14:26.313Z,93974.03
2023-03-13T11:19:53.534Z,93982.56
2023-03-13T11:25:22.738Z,93974.91
2023-03-13T11:30:46.312Z,93963.88
2023-03-13T11:36:01.594Z,93959.78
2023-03-13T11:41:21.557Z,93962.38
2023-03-13T11:46:45.882Z,93946.88
2023-03-13T11:52:02.444Z,93940.38
2023-03-13T11:57:44.205Z,93931.34
2023-03-13T12:02:58.226Z,93925.75
2023-03-13T12:08:29.078Z,93931.25
2023-03-13T12:13:56.600Z,93916.75
2023-03-13T12:19:00.234Z,93920.84
2023-03-13T12:24:28.065Z,93919.84
2023-03-13T12:29:50.316Z,93914.75
2023-03-13T12:35:08.079Z,93916.31
2023-03-13T12:40:35.228Z,93901.84
2023-03-13T12:46:09.909Z,93897.81
2023-03-13T12:51:49.194Z,93910.16
2023-03-13T12:57:17.991Z,93908.44
2023-03-13T13:02:27.953Z,93896.59
2023-03-13T13:07:35.266Z,93912.34
2023-03-13T13:12:43.693Z,93913.97
2023-03-13T13:18:07.103Z,93922.09
2023-03-13T13:23:23.959Z,93916.59
2023-03-13T13:28:35.235Z,93915.06
2023-03-13T13:33:39.496Z,93914.56
2023-03-13T13:38:43.223Z,93897.63
2023-03-13T13:43:49.234Z,93915.31
2023-03-13T13:49:08.179Z,93909.31
2023-03-13T13:54:43.172Z,93909.09
2023-03-13T13:59:51.972Z,93896.13
2023-03-13T14:05:04.365Z,93896.47
2023-03-13T14:10:32.680Z,93905.53
2023-03-13T14:15:37.192Z,93899.38
2023-03-13T14:20:53.789Z,93901.50
2023-03-13T14:25:57.475Z,93893.66
2023-03-13T14:31:00.651Z,93896.41
2023-03-13T14:36:04.697Z,93899.81
2023-03-13T14:41:24.072Z,93903.91
2023-03-13T14:46:33.597Z,93888.00
2023-03-13T14:51:40.691Z,93890.19
2023-03-13T14:56:45.448Z,93891.63
2023-03-13T15:02:19.101Z,93902.59
2023-03-13T15:07:23.216Z,93898.69
2023-03-13T15:12:26.358Z,93892.91
2023-03-13T15:17:30.236Z,93895.44
2023-03-13T15:22:39.589Z,93898.31
2023-03-13T15:27:42.676Z,93890.22
2023-03-13T15:32:47.257Z,93894.41
2023-03-13T15:37:50.772Z,93901.94
2023-03-13T15:42:55.820Z,93894.91
2023-03-13T15:48:00.999Z,93899.31
2023-03-13T15:53:20.163Z,93898.84
2023-03-13T15:58:24.953Z,93901.50
2023-03-13T16:03:29.183Z,93915.03
2023-03-13T16:08:36.453Z,93907.47
2023-03-13T16:13:40.922Z,93903.19
2023-03-13T16:18:44.020Z,93905.44
2023-03-13T16:23:47.297Z,93904.19
2023-03-13T16:28:51.270Z,93896.34
2023-03-13T16:33:55.605Z,93913.03
2023-03-13T16:39:05.771Z,93915.66
2023-03-13T16:44:09.648Z,93908.72
2023-03-13T16:49:16.157Z,93913.56
2023-03-13T16:54:19.802Z,93911.97
2023-03-13T16:59:24.562Z,93906.81
2023-03-13T17:04:28.784Z,93902.88
2023-03-13T17:09:32.345Z,93912.88
2023-03-13T17:14:35.849Z,93915.44
2023-03-13T17:19:38.918Z,93906.63
2023-03-13T17:24:42.850Z,93911.75
2023-03-13T17:29:46.028Z,93914.78
2023-03-13T17:34:49.641Z,93921.53
2023-03-13T17:39:52.750Z,93917.53
2023-03-13T17:44:56.807Z,93921.25
2023-03-13T17:50:00.815Z,93919.53
2023-03-13T17:55:05.297Z,93931.84
2023-03-13T18:00:45.419Z,93933.28
2023-03-13T18:05:49.465Z,93927.22
2023-03-13T18:10:54.126Z,93934.88
2023-03-13T18:15:57.989Z,93942.97
2023-03-13T18:21:02.406Z,93944.00
2023-03-13T18:26:18.178Z,93943.94
2023-03-13T18:31:22.701Z,93937.91
2023-03-13T18:36:27.849Z,93939.09
2023-03-13T18:41:32.056Z,93945.03
2023-03-13T18:46:35.663Z,93932.91
2023-03-13T18:51:39.374Z,93931.41
2023-03-13T18:56:45.546Z,93936.53
2023-03-13T19:01:49.609Z,93934.19
2023-03-13T19:06:53.543Z,93922.50
2023-03-13T19:11:57.115Z,93933.44
2023-03-13T19:17:00.189Z,93926.31
2023-03-13T19:22:04.291Z,93935.66
2023-03-13T19:27:08.000Z,93918.25
2023-03-13T19:32:20.046Z,93940.53
2023-03-13T19:37:23.725Z,93927.69
2023-03-13T19:42:28.778Z,93925.72
2023-03-13T19:47:31.950Z,93911.19
2023-03-13T19:52:36.133Z,93920.22
2023-03-13T19:57:40.144Z,93917.38
2023-03-13T20:02:44.324Z,93930.50
2023-03-13T20:07:49.094Z,93923.47
2023-03-13T20:12:53.917Z,93928.88
2023-03-13T20:17:56.955Z,93926.56
2023-03-13T20:23:00.062Z,93922.22
2023-03-13T20:28:03.848Z,93912.84
2023-03-13T20:33:07.523Z,93916.56
2023-03-13T20:38:11.176Z,93908.53
2023-03-13T20:43:15.302Z,93904.34
2023-03-13T20:48:19.631Z,93904.69
2023-03-13T20:53:24.425Z,93901.91
2023-03-13T20:58:27.919Z,93908.09
2023-03-13T21:03:36.141Z,93896.03
2023-03-13T21:08:39.844Z,93890.47
2023-03-13T21:13:43.538Z,93894.31
2023-03-13T21:18:47.606Z,93882.13
2023-03-13T21:23:52.392Z,93886.38
2023-03-13T21:28:55.828Z,93876.41
2023-03-13T21:33:59.506Z,93880.22
2023-03-13T21:39:03.100Z,93872.66
2023-03-13T21:44:08.188Z,93871.03
2023-03-13T21:49:12.436Z,93857.84
2023-03-13T21:54:16.037Z,93856.84
2023-03-13T21:59:22.100Z,93859.72
2023-03-13T22:04:25.920Z,93855.47
2023-03-13T22:09:29.375Z,93843.56
2023-03-13T22:14:32.868Z,93835.09
2023-03-13T22:19:36.861Z,93832.09
2023-03-13T22:24:40.996Z,93824.22
2023-03-13T22:29:44.274Z,93825.22
2023-03-13T22:34:48.409Z,93822.09
2023-03-13T22:39:54.135Z,93822.59
2023-03-13T22:44:57.682Z,93808.25
2023-03-13T22:50:00.745Z,93802.38
2023-03-13T22:55:04.752Z,93798.66
2023-03-13T23:00:09.393Z,93795.81
2023-03-13T23:05:12.501Z,93793.88
2023-03-13T23:10:16.636Z,93778.25
2023-03-13T23:15:20.273Z,93786.38
2023-03-13T23:20:23.755Z,93774.53
2023-03-13T23:25:27.462Z,93780.13
2023-03-13T23:30:30.515Z,93770.25
2023-03-13T23:35:37.377Z,93766.88
2023-03-13T23:40:41.280Z,93756.19
2023-03-13T23:45:45.149Z,93748.59
2023-03-13T23:50:48.275Z,93747.22
2023-03-13T23:55:59.018Z,93745.97
